• Join FlightAware (Why Join?)
  • Login
  • US Flag 
03:19AM EDT


 

Airport Tracker/Info


-or-


 

Live Flight TrackerFlight Track Log ✈ N793DC ✈ 04-May-2012 ✈ KSDY - KBIL

Flight Track Log - Related Links

Times and Time Zones

All times are in EDT time to prevent confusion due to time zone crossing. See the N793DC flight status page for this flight to view local times or setup timezone preferences in your user account.

Time Position Orientation Groundspeed Altitude Reporting Facility
EDT Latitude Longitude Course Direction KTS MPH feet Rate Location/Type
03:34PM 47.6542 -104.2972 242° Southwest 157 181 6,300  Level Salt Lake Center
03:35PM 47.6342 -104.3531 247° West 156 180 8,400 1,800 Climbing Salt Lake Center
03:36PM 47.6169 -104.4139 244° Southwest 161 185 10,100 1,500 Climbing Salt Lake Center
03:37PM 47.5953 -104.4803 238° Southwest 173 199 11,500 1,500 Climbing Salt Lake Center
03:38PM 47.5608 -104.5606 239° Southwest 186 214 13,300 1,440 Climbing Salt Lake Center
03:39PM 47.5331 -104.6297 239° Southwest 192 221 14,500 1,080 Climbing Salt Lake Center
03:40PM 47.5028 -104.7056 240° Southwest 202 232 15,600 1,020 Climbing Salt Lake Center
03:41PM 47.4714 -104.7847 238° Southwest 213 245 16,700 960 Climbing Salt Lake Center
03:42PM 47.4394 -104.8608 239° Southwest 217 250 17,700 540 Climbing Salt Lake Center
03:43PM 47.4011 -104.9547 238° Southwest 220 253 17,900 60 Climbing Salt Lake Center
03:44PM 47.3656 -105.0392 239° Southwest 231 266 17,900  Level Salt Lake Center
03:45PM 47.3308 -105.1228 237° Southwest 237 273 17,900  Level Salt Lake Center
03:46PM 47.2953 -105.2047 239° Southwest 238 274 17,900  Level Salt Lake Center
03:47PM 47.2603 -105.2889 239° Southwest 240 276 17,900  Level Salt Lake Center
03:48PM 47.2264 -105.3725 239° Southwest 239 275 17,900  Level Salt Lake Center
03:49PM 47.1847 -105.4725 239° Southwest 240 276 17,900  Level Salt Lake Center
03:50PM 47.1506 -105.5556 239° Southwest 239 275 17,900  Level Salt Lake Center
03:51PM 47.1167 -105.6397 237° Southwest 239 275 17,900  Level Salt Lake Center
03:52PM 47.0808 -105.7217 238° Southwest 239 275 17,900  Level Salt Lake Center
03:53PM 47.0450 -105.8050 238° Southwest 240 276 17,900  Level Salt Lake Center
03:54PM 47.0094 -105.8872 239° Southwest 240 276 17,900  Level Salt Lake Center
03:55PM 46.9675 -105.9875 237° Southwest 241 277 17,900  Level Salt Lake Center
03:56PM 46.9311 -106.0703 238° Southwest 242 278 17,900  Level Salt Lake Center
03:57PM 46.8953 -106.1536 238° Southwest 242 278 17,900  Level Salt Lake Center
03:58PM 46.8600 -106.2358 237° Southwest 241 277 17,900  Level Salt Lake Center
03:59PM 46.8244 -106.3167 237° Southwest 239 275 17,900  Level Salt Lake Center
04:01PM 46.7886 -106.3969 237° Southwest 238 274 17,900  Level Salt Lake Center
04:02PM 46.7447 -106.4947 238° Southwest 239 275 17,900  Level Salt Lake Center
04:03PM 46.7094 -106.5761 238° Southwest 239 275 17,900  Level Salt Lake Center
04:04PM 46.6742 -106.6581 237° Southwest 239 275 17,900  Level Salt Lake Center
04:05PM 46.6381 -106.7378 237° Southwest 238 274 17,900  Level Salt Lake Center
04:06PM 46.5978 -106.8275 237° Southwest 237 273 17,900  Level Salt Lake Center
04:07PM 46.5639 -106.9047 237° Southwest 237 273 17,900  Level Salt Lake Center
04:08PM 46.5239 -106.9936 237° Southwest 236 272 17,900  Level Salt Lake Center
04:10PM 46.4508 -107.1597 236° Southwest 234 269 18,000  Climbing Salt Lake Center
04:11PM 46.4153 -107.2356 237° Southwest 236 272 18,000  Level Salt Lake Center
04:12PM 46.3753 -107.3244 234° Southwest 237 273 18,000 -60 Level Salt Lake Center
04:13PM 46.3386 -107.3964 237° Southwest 235 270 17,900 -600 Descending Salt Lake Center
04:14PM 46.2981 -107.4864 237° Southwest 238 274 16,800 -1,080 Descending Salt Lake Center
04:15PM 46.2606 -107.5686 236° Southwest 244 281 15,700 -1,080 Descending Salt Lake Center
04:16PM 46.2186 -107.6592 237° Southwest 250 288 14,600 -1,080 Descending Salt Lake Center
04:17PM 46.1814 -107.7428 235° Southwest 251 289 13,500 -780 Descending Salt Lake Center
04:18PM 46.1428 -107.8225 230° Southwest 231 266 13,000 -300 Descending Salt Lake Center
04:19PM 46.1056 -107.8867 228° Southwest 211 243 13,000 -420 Level Salt Lake Center
04:20PM 46.0642 -107.9531 241° Southwest 209 241 12,200 -1,260 Descending Salt Lake Center
04:21PM 46.0347 -108.0292 242° Southwest 236 272 10,500 -1,620 Descending Salt Lake Center
04:22PM 46.0011 -108.1217 246° West 246 283 8,900 -1,260 Descending Salt Lake Center
04:23PM 45.9742 -108.2075 243° Southwest 241 277 8,000 -1,020 Descending Salt Lake Center
04:24PM 45.9431 -108.2950 240° Southwest 231 266 6,900 -1,020 Descending Salt Lake Center
04:25PM 45.9122 -108.3722 241° Southwest 227 261 5,900 -840 Descending Salt Lake Center
04:26PM 45.8797 -108.4564 242° Southwest 226 260 5,200 -360 Descending Salt Lake Center
04:27PM 45.8542 -108.5264 242° Southwest 206 237 5,200 -360 Level Salt Lake Center
04:28PM 45.8342 -108.5797 154° Southeast 151 174 4,500 -720 Descending Salt Lake Center
04:29PM 45.8086 -108.5622 154° Southeast 115 132 3,800 -720 Descending Salt Lake Center